createdAt,value
2023-05-09T00:01:14.018Z,27.60
2023-05-09T00:06:17.333Z,26.90
2023-05-09T00:11:22.038Z,26.83
2023-05-09T00:16:25.478Z,27.97
2023-05-09T00:21:28.886Z,27.43
2023-05-09T00:26:33.673Z,28.77
2023-05-09T00:31:36.793Z,28.07
2023-05-09T00:36:40.227Z,29.00
2023-05-09T00:41:45.089Z,28.03
2023-05-09T00:46:48.535Z,29.00
2023-05-09T00:51:52.610Z,30.00
2023-05-09T00:56:56.988Z,30.53
2023-05-09T01:01:59.993Z,29.83
2023-05-09T01:07:07.182Z,29.70
2023-05-09T01:12:23.291Z,29.67
2023-05-09T01:17:37.494Z,28.87
2023-05-09T01:22:46.532Z,30.77
2023-05-09T01:27:58.540Z,30.97
2023-05-09T01:33:08.125Z,30.43
2023-05-09T01:38:18.642Z,28.93
2023-05-09T01:43:26.139Z,29.17
2023-05-09T01:48:32.833Z,29.00
2023-05-09T01:53:36.559Z,28.60
2023-05-09T01:58:41.007Z,30.10
2023-05-09T02:03:46.741Z,29.00
2023-05-09T02:08:51.075Z,29.03
2023-05-09T02:13:54.111Z,27.83
2023-05-09T02:18:58.936Z,27.57
2023-05-09T02:24:02.551Z,27.87
2023-05-09T02:29:07.789Z,26.73
2023-05-09T02:34:13.471Z,29.30
2023-05-09T02:39:16.645Z,27.33
2023-05-09T02:44:19.654Z,25.03
2023-05-09T02:49:32.034Z,24.77
2023-05-09T02:54:36.051Z,28.00
2023-05-09T02:59:39.092Z,28.73
2023-05-09T03:04:43.485Z,30.40
2023-05-09T03:09:46.514Z,30.47
2023-05-09T03:14:49.537Z,30.10
2023-05-09T03:19:53.864Z,32.00
2023-05-09T03:24:56.867Z,32.13
2023-05-09T03:29:59.893Z,30.90
2023-05-09T03:35:04.874Z,30.93
2023-05-09T03:40:09.446Z,30.70
2023-05-09T03:45:13.544Z,33.07
2023-05-09T03:50:18.198Z,33.20
2023-05-09T03:55:23.767Z,34.23
2023-05-09T04:00:27.299Z,31.43
2023-05-09T04:05:33.481Z,33.40
2023-05-09T04:10:36.498Z,34.80
2023-05-09T04:15:39.513Z,34.40
2023-05-09T04:20:43.942Z,32.77
2023-05-09T04:25:46.962Z,34.33
2023-05-09T04:30:50.032Z,33.33
2023-05-09T04:35:55.672Z,32.40
2023-05-09T04:40:58.717Z,33.27
2023-05-09T04:46:02.548Z,37.83
2023-05-09T04:51:07.284Z,38.57
2023-05-09T04:56:10.316Z,37.77
2023-05-09T05:01:13.350Z,37.27
2023-05-09T05:06:18.252Z,32.67
2023-05-09T05:11:21.947Z,30.87
2023-05-09T05:16:25.031Z,30.67
2023-05-09T05:21:29.458Z,31.27
2023-05-09T05:26:32.969Z,30.33
2023-05-09T05:31:36.305Z,31.10
2023-05-09T05:36:40.906Z,28.97
2023-05-09T05:41:43.960Z,29.90
2023-05-09T05:46:47.118Z,29.40
2023-05-09T05:51:51.495Z,28.70
2023-05-09T05:56:54.504Z,28.97
2023-05-09T06:01:57.540Z,28.47
2023-05-09T06:07:01.909Z,26.63
2023-05-09T06:12:06.275Z,26.47
2023-05-09T06:17:09.594Z,25.43
2023-05-09T06:22:14.005Z,24.90
2023-05-09T06:27:17.076Z,23.30
2023-05-09T06:32:20.258Z,24.20
2023-05-09T06:37:24.597Z,23.90
2023-05-09T06:42:28.521Z,24.20
2023-05-09T06:47:31.603Z,23.07
2023-05-09T06:52:36.088Z,22.63
2023-05-09T06:57:39.305Z,22.70
2023-05-09T07:02:42.631Z,22.73
2023-05-09T07:07:47.026Z,23.07
2023-05-09T07:12:50.702Z,21.93
2023-05-09T07:17:53.730Z,21.67
2023-05-09T07:22:58.856Z,21.87
2023-05-09T07:28:01.979Z,21.40
2023-05-09T07:33:05.270Z,21.93
2023-05-09T07:38:10.901Z,20.70
2023-05-09T07:43:14.157Z,20.70
2023-05-09T07:48:17.280Z,21.97
2023-05-09T07:53:21.783Z,20.63
2023-05-09T07:58:24.910Z,21.23
2023-05-09T08:03:28.216Z,21.87
2023-05-09T08:08:32.758Z,21.50
2023-05-09T08:13:35.977Z,21.53
2023-05-09T08:18:39.172Z,22.97
2023-05-09T08:23:43.685Z,22.97
2023-05-09T08:28:46.908Z,24.70
2023-05-09T08:33:50.143Z,24.73
2023-05-09T08:38:54.708Z,25.33
2023-05-09T08:43:57.969Z,23.60
2023-05-09T08:49:02.094Z,24.70
2023-05-09T08:54:07.465Z,26.97
2023-05-09T08:59:10.844Z,26.50
2023-05-09T09:04:14.071Z,24.40
2023-05-09T09:09:20.266Z,23.93
2023-05-09T09:14:26.518Z,23.70
2023-05-09T09:19:32.230Z,22.67
2023-05-09T09:24:36.878Z,22.58
2023-05-09T09:29:40.387Z,23.03
2023-05-09T09:34:43.535Z,22.60
2023-05-09T09:39:56.437Z,22.40
2023-05-09T09:45:04.039Z,22.67
2023-05-09T09:50:15.016Z,21.37
2023-05-09T09:55:20.642Z,23.10
2023-05-09T10:00:27.720Z,22.23
2023-05-09T10:05:34.735Z,21.23
2023-05-09T10:10:39.318Z,21.05
2023-05-09T10:15:53.206Z,19.63
2023-05-09T10:21:00.845Z,21.57
2023-05-09T10:26:17.536Z,21.57
2023-05-09T10:31:24.146Z,21.30
2023-05-09T10:36:28.856Z,21.40
2023-05-09T10:41:35.141Z,21.97
2023-05-09T10:46:38.708Z,23.00
2023-05-09T10:51:41.952Z,21.83
2023-05-09T10:56:46.850Z,21.43
2023-05-09T11:02:00.939Z,20.33
2023-05-09T11:07:04.263Z,21.00
2023-05-09T11:12:13.296Z,21.50
2023-05-09T11:17:29.507Z,20.97
2023-05-09T11:22:40.619Z,19.93
2023-05-09T11:27:46.911Z,21.80
2023-05-09T11:32:53.306Z,17.67
2023-05-09T11:38:01.962Z,19.27
2023-05-09T11:43:09.244Z,19.67
2023-05-09T11:48:12.291Z,17.67
2023-05-09T11:53:15.329Z,19.00
2023-05-09T11:58:21.004Z,16.35
2023-05-09T12:03:25.119Z,16.77
2023-05-09T12:08:30.016Z,14.85
2023-05-09T12:13:35.310Z,15.38
2023-05-09T12:18:38.346Z,14.02
2023-05-09T12:23:41.538Z,13.85
2023-05-09T12:28:46.341Z,12.80
2023-05-09T12:33:49.467Z,13.43
2023-05-09T12:38:55.601Z,13.10
2023-05-09T12:44:00.163Z,12.93
2023-05-09T12:49:03.214Z,12.70
2023-05-09T12:54:10.857Z,12.13
2023-05-09T12:59:20.853Z,12.30
2023-05-09T13:04:24.430Z,12.80
2023-05-09T13:09:28.340Z,12.10
2023-05-09T13:14:32.857Z,12.25
2023-05-09T13:19:39.357Z,11.65
2023-05-09T13:24:42.422Z,11.38
2023-05-09T13:29:46.808Z,11.88
2023-05-09T13:34:49.827Z,10.70
2023-05-09T13:39:54.480Z,11.13
2023-05-09T13:44:58.864Z,10.77
2023-05-09T13:50:01.951Z,10.40
2023-05-09T13:55:05.601Z,9.88
2023-05-09T14:00:14.376Z,12.00
2023-05-09T14:05:18.787Z,10.10
2023-05-09T14:10:22.168Z,10.90
2023-05-09T14:15:26.620Z,10.63
2023-05-09T14:20:29.807Z,9.23
2023-05-09T14:25:32.838Z,10.25
2023-05-09T14:30:37.478Z,9.82
2023-05-09T14:35:41.696Z,9.50
2023-05-09T14:40:45.065Z,10.25
2023-05-09T14:45:49.467Z,9.57
2023-05-09T14:50:56.146Z,9.77
2023-05-09T14:55:59.179Z,9.68
2023-05-09T15:01:04.054Z,9.60
2023-05-09T15:06:07.618Z,9.55
2023-05-09T15:11:10.643Z,8.48
2023-05-09T15:16:15.379Z,9.70
2023-05-09T15:21:18.805Z,8.52
2023-05-09T15:26:22.683Z,7.78
2023-05-09T15:31:27.224Z,7.22
2023-05-09T15:36:30.963Z,7.82
2023-05-09T15:41:34.985Z,7.07
2023-05-09T15:46:39.625Z,8.07
2023-05-09T15:51:43.226Z,7.40
2023-05-09T15:56:46.236Z,7.82
2023-05-09T16:01:50.746Z,8.60
2023-05-09T16:06:55.510Z,9.38
2023-05-09T16:11:58.538Z,10.07
2023-05-09T16:17:06.289Z,8.83
2023-05-09T16:22:09.331Z,9.83
2023-05-09T16:27:14.287Z,9.80
2023-05-09T16:32:18.642Z,10.10
2023-05-09T16:37:21.661Z,10.57
2023-05-09T16:42:24.706Z,10.13
2023-05-09T16:47:29.092Z,11.37
2023-05-09T16:52:32.147Z,11.87
2023-05-09T16:57:35.190Z,10.60
2023-05-09T17:02:39.632Z,13.57
2023-05-09T17:07:43.041Z,12.17
2023-05-09T17:12:46.118Z,15.00
2023-05-09T17:17:50.820Z,14.10
2023-05-09T17:22:53.875Z,14.10
2023-05-09T17:27:56.911Z,14.63
2023-05-09T17:33:01.843Z,14.60
2023-05-09T17:38:06.403Z,15.63
2023-05-09T17:43:09.433Z,16.23
2023-05-09T17:48:14.430Z,14.27
2023-05-09T17:53:17.491Z,13.37
2023-05-09T17:58:23.111Z,11.37
2023-05-09T18:03:28.429Z,12.83
2023-05-09T18:08:31.647Z,17.87
2023-05-09T18:13:34.978Z,17.07
2023-05-09T18:18:39.758Z,16.37
2023-05-09T18:23:43.075Z,16.47
2023-05-09T18:28:46.112Z,17.43
2023-05-09T18:33:51.104Z,18.07
2023-05-09T18:38:54.128Z,16.33
2023-05-09T18:43:58.442Z,17.57
2023-05-09T18:49:04.060Z,17.97
2023-05-09T18:54:07.835Z,18.43
2023-05-09T18:59:13.544Z,18.27
2023-05-09T19:04:19.616Z,14.63
2023-05-09T19:09:22.943Z,13.03
2023-05-09T19:14:26.093Z,15.50
2023-05-09T19:19:30.462Z,14.83
2023-05-09T19:24:33.584Z,13.20
2023-05-09T19:29:38.017Z,12.30
2023-05-09T19:34:42.660Z,12.40
2023-05-09T19:39:45.988Z,10.43
2023-05-09T19:44:49.067Z,14.67
2023-05-09T19:49:54.259Z,57.33
2023-05-09T19:54:58.072Z,19.17
2023-05-09T20:00:01.529Z,65.97
2023-05-09T20:05:07.279Z,19.57
2023-05-09T20:10:13.022Z,13.63
2023-05-09T20:15:16.417Z,14.93
2023-05-09T20:20:20.961Z,21.17
2023-05-09T20:25:24.845Z,15.53
2023-05-09T20:30:27.919Z,12.70
2023-05-09T20:35:32.315Z,13.43
2023-05-09T20:40:35.932Z,15.57
2023-05-09T20:45:39.159Z,14.70
2023-05-09T20:50:43.575Z,11.00
2023-05-09T20:55:47.849Z,11.80
2023-05-09T21:00:52.748Z,11.77
2023-05-09T21:05:57.191Z,10.77
2023-05-09T21:11:00.557Z,11.70
2023-05-09T21:16:03.660Z,10.70
2023-05-09T21:21:08.598Z,11.57
2023-05-09T21:26:11.615Z,12.37
2023-05-09T21:31:14.672Z,13.63
2023-05-09T21:36:19.473Z,15.03
2023-05-09T21:41:22.824Z,16.57
2023-05-09T21:46:25.913Z,19.93
2023-05-09T21:51:31.735Z,22.03
2023-05-09T21:56:35.195Z,25.27
2023-05-09T22:01:38.772Z,27.27
2023-05-09T22:06:43.883Z,27.03
2023-05-09T22:11:46.905Z,26.03
2023-05-09T22:16:49.963Z,24.00
2023-05-09T22:21:54.734Z,17.77
2023-05-09T22:26:57.752Z,18.70
2023-05-09T22:32:00.798Z,18.77
2023-05-09T22:37:05.200Z,17.30
2023-05-09T22:42:09.661Z,17.03
2023-05-09T22:47:12.671Z,16.13
2023-05-09T22:52:17.409Z,16.53
2023-05-09T22:57:20.706Z,16.80
2023-05-09T23:02:23.807Z,17.33
2023-05-09T23:07:28.673Z,16.83
2023-05-09T23:12:31.747Z,18.07
2023-05-09T23:17:35.597Z,17.03
2023-05-09T23:22:40.448Z,16.37
2023-05-09T23:27:44.539Z,16.60
2023-05-09T23:32:47.640Z,16.67
2023-05-09T23:37:51.996Z,17.90
2023-05-09T23:42:54.997Z,17.40
2023-05-09T23:47:58.126Z,16.20
2023-05-09T23:53:04.729Z,6.07
2023-05-09T23:58:07.794Z,2.70
